ENRS/RET METAR and TAF weather

Enter ICAO airport designator
Station Type Date Time Source
ENRS METAR 2018/04/20 07:50 UTC NOAA

ENRS 200750Z 20017KT 9999 -SHRA SCT004 SCT009 OVC016 07/06 Q1009


Station Type Date Time Source
ENRS Decoded METAR 2018/04/20 07:50 UTC NOAA

Rost Flyplass, Norway (ENRS) 67-31N 012-06E
Apr 20, 2018 - 03:50 AM EDT / 2018.04.20 0750 UTC
Wind: from the SSW (200 degrees) at 20 MPH (17 KT):0
Visibility: greater than 7 mile(s):0
Sky conditions: overcast
Weather: light rain showers
Temperature: 44 F (7 C)
Dew Point: 42 F (6 C)
Relative Humidity: 93%
Pressure (altimeter): 29.80 in. Hg (1009 hPa)
ob: ENRS 200750Z 20017KT 9999 -SHRA SCT004 SCT009 OVC016 07/06 Q1009
cycle: 8

Station Type Date Time Source
ENRS TAF UTC NOAA

Error!


Example: see airport list